ADDS METAR Data INFO
IDs: Format: Raw Decoded Include TAF

Data at: 2112 UTC 20 Nov 2017

METAR for:KLRD (Laredo Intl Apt, TX, US)
Text:KLRD 202056Z 17007KT 10SM SCT040 21/10 A3004 RMK AO2 SLP180 T02060100 56041
Temperature: 20.6°C ( 69°F)
Dewpoint: 10.0°C ( 50°F) [RH = 51%]
Pressure (altimeter):30.04 inches Hg (1017.4 mb) [Sea level pressure: 1018.0 mb]
Winds:from the S (170 degrees) at 8 MPH (7 knots; 3.6 m/s)
Visibility:10 or more sm (16+ km)
Ceiling:at least 12,000 feet AGL
Clouds: scattered clouds at 4000 feet AGL